CheckWX is a tool to help pilots better visualize weather data.  It is not intended as a substitute for an official pre-flight weather briefing.

01:41:54 UTC

KPVW TAF
Hale County Airport
Plainview, Texas, USA
KPVW 152330Z 1600/1624 05011KT P6SM FEW090 FM160700 06007KT P6SM SCT020 BKN025 FM161100 VRB05KT P6SM SCT008 OVC015 FM161400 VRB06KT P6SM SCT015 OVC025 FM161800 36012KT P6SM BKN035

Dec-16@
00:00 UTC

Dec-16 @ 00:00 UTC

Dec-16@
07:00 UTC

Dec-16 @ 07:00 UTC

KPVW 152330Z 1600/1624 05011KT P6SM FEW090
Wind
  • 050° at 11 KTS
Cloud Levels
  • Few at 9,000' AGL

Dec-16@
07:00 UTC

Dec-16 @ 07:00 UTC

Dec-16@
11:00 UTC

Dec-16 @ 11:00 UTC

FM160700 06007KT P6SM SCT020 BKN025

From

From Standard forecast or significant change

Wind
  • 060° at 7 KTS
Cloud Levels
  • Scattered at 2,000' AGL
  • Broken at 2,500' AGL

Dec-16@
11:00 UTC

Dec-16 @ 11:00 UTC

Dec-16@
14:00 UTC

Dec-16 @ 14:00 UTC

FM161100 VRB05KT P6SM SCT008 OVC015

From

From Standard forecast or significant change

Wind
  • Variable at 5 KTS
Cloud Levels
  • Scattered at 800' AGL
  • Overcast at 1,500' AGL

Dec-16@
14:00 UTC

Dec-16 @ 14:00 UTC

Dec-16@
18:00 UTC

Dec-16 @ 18:00 UTC

FM161400 VRB06KT P6SM SCT015 OVC025

From

From Standard forecast or significant change

Wind
  • Variable at 6 KTS
Cloud Levels
  • Scattered at 1,500' AGL
  • Overcast at 2,500' AGL

Dec-16@
18:00 UTC

Dec-16 @ 18:00 UTC

Dec-17@
00:00 UTC

Dec-17 @ 00:00 UTC

FM161800 36012KT P6SM BKN035

From

From Standard forecast or significant change

Wind
  • 360° at 12 KTS
Cloud Levels
  • Broken at 3,500' AGL